createdAt,value
2022-10-17T00:01:06.833Z,82.41
2022-10-17T00:03:38.423Z,82.37
2022-10-17T00:06:14.943Z,82.26
2022-10-17T00:08:44.347Z,82.21
2022-10-17T00:11:18.770Z,82.29
2022-10-17T00:13:48.304Z,82.38
2022-10-17T00:16:26.323Z,82.40
2022-10-17T00:18:54.785Z,82.35
2022-10-17T00:21:23.217Z,82.65
2022-10-17T00:23:52.698Z,82.51
2022-10-17T00:26:21.030Z,82.47
2022-10-17T00:28:52.381Z,82.58
2022-10-17T00:31:21.709Z,82.61
2022-10-17T00:33:52.127Z,82.52
2022-10-17T00:36:23.681Z,82.68
2022-10-17T00:38:59.449Z,82.53
2022-10-17T00:41:30.811Z,82.59
2022-10-17T00:44:00.990Z,82.58
2022-10-17T00:46:37.975Z,82.69
2022-10-17T00:49:09.570Z,82.76
2022-10-17T00:51:46.567Z,82.75
2022-10-17T00:54:17.578Z,82.62
2022-10-17T00:56:47.909Z,82.87
2022-10-17T00:59:17.868Z,82.68
2022-10-17T01:01:55.328Z,82.66
2022-10-17T01:04:24.343Z,82.77
2022-10-17T01:06:54.885Z,82.78
2022-10-17T01:09:23.339Z,82.83
2022-10-17T01:12:21.269Z,82.88
2022-10-17T01:14:58.278Z,82.89
2022-10-17T01:17:44.802Z,82.87
2022-10-17T01:20:41.508Z,82.78
2022-10-17T01:23:51.157Z,82.85
2022-10-17T01:26:57.681Z,83.03
2022-10-17T01:29:59.811Z,83.09
2022-10-17T01:32:40.768Z,83.06
2022-10-17T01:35:20.877Z,83.04
2022-10-17T01:38:04.786Z,83.01
2022-10-17T01:40:51.341Z,83.04
2022-10-17T01:43:28.769Z,83.15
2022-10-17T01:46:13.570Z,83.21
2022-10-17T01:48:45.808Z,83.46
2022-10-17T01:51:21.525Z,83.39
2022-10-17T01:53:54.595Z,83.43
2022-10-17T01:56:27.480Z,83.43
2022-10-17T01:59:01.823Z,83.53
2022-10-17T02:01:34.642Z,83.45
2022-10-17T02:04:05.760Z,83.61
2022-10-17T02:06:38.103Z,83.61
2022-10-17T02:09:25.915Z,83.68
2022-10-17T02:12:09.285Z,83.74
2022-10-17T02:14:55.563Z,83.68
2022-10-17T02:17:44.622Z,83.84
2022-10-17T02:20:34.583Z,83.92
2022-10-17T02:23:27.687Z,83.97
2022-10-17T02:26:09.422Z,83.99
2022-10-17T02:29:12.197Z,83.98
2022-10-17T02:31:53.814Z,83.86
2022-10-17T02:34:36.904Z,83.99
2022-10-17T02:37:08.637Z,83.95
2022-10-17T02:39:40.101Z,84.09
2022-10-17T02:42:12.487Z,83.96
2022-10-17T02:44:43.398Z,84.11
2022-10-17T02:47:44.576Z,84.16
2022-10-17T02:50:12.417Z,84.19
2022-10-17T02:52:51.943Z,84.34
2022-10-17T02:55:29.092Z,84.37
2022-10-17T02:58:06.736Z,84.24
2022-10-17T03:00:40.733Z,84.24
2022-10-17T03:03:27.499Z,84.17
2022-10-17T03:05:55.689Z,84.30
2022-10-17T03:08:25.181Z,84.49
2022-10-17T03:10:53.888Z,84.53
2022-10-17T03:13:22.269Z,84.64
2022-10-17T03:15:51.298Z,84.51
2022-10-17T03:18:19.460Z,84.37
2022-10-17T03:20:47.753Z,84.63
2022-10-17T03:23:15.744Z,84.68
2022-10-17T03:25:43.504Z,84.67
2022-10-17T03:28:12.727Z,84.65
2022-10-17T03:30:40.509Z,84.62
2022-10-17T03:33:08.387Z,84.78
2022-10-17T03:35:40.424Z,84.59
2022-10-17T03:38:08.789Z,84.72
2022-10-17T03:40:37.763Z,84.66
2022-10-17T03:43:06.069Z,84.70
2022-10-17T03:45:33.810Z,84.74
2022-10-17T03:48:02.224Z,84.76
2022-10-17T03:50:30.681Z,84.85
2022-10-17T03:52:59.217Z,84.78
2022-10-17T03:55:27.840Z,84.93
2022-10-17T03:57:56.581Z,84.76
2022-10-17T04:00:24.886Z,84.96
2022-10-17T04:02:55.662Z,84.88
2022-10-17T04:05:23.901Z,85.00
2022-10-17T04:07:52.047Z,85.08
2022-10-17T04:10:23.097Z,85.02
2022-10-17T04:12:51.482Z,84.92
2022-10-17T04:15:19.590Z,84.92
2022-10-17T04:17:48.650Z,84.78
2022-10-17T04:20:17.172Z,84.92
2022-10-17T04:22:46.344Z,84.84
2022-10-17T04:25:14.950Z,84.98
2022-10-17T04:27:49.350Z,84.97
2022-10-17T04:30:17.477Z,84.81
2022-10-17T04:32:45.981Z,84.86
2022-10-17T04:35:18.302Z,84.95
2022-10-17T04:37:51.312Z,85.12
2022-10-17T04:40:30.139Z,85.18
2022-10-17T04:42:58.020Z,85.02
2022-10-17T04:45:31.428Z,85.18
2022-10-17T04:48:04.088Z,85.25
2022-10-17T04:50:32.476Z,85.19
2022-10-17T04:53:19.232Z,85.25
2022-10-17T04:55:48.784Z,85.09
2022-10-17T04:58:17.536Z,85.01
2022-10-17T05:00:45.748Z,85.01
2022-10-17T05:03:23.397Z,85.08
2022-10-17T05:05:51.234Z,85.25
2022-10-17T05:08:19.448Z,85.09
2022-10-17T05:10:50.121Z,85.02
2022-10-17T05:13:17.975Z,85.20
2022-10-17T05:15:47.594Z,85.33
2022-10-17T05:18:16.596Z,85.43
2022-10-17T05:20:46.046Z,85.64
2022-10-17T05:23:16.760Z,85.57
2022-10-17T05:25:46.800Z,85.75
2022-10-17T05:28:14.637Z,85.80
2022-10-17T05:30:43.310Z,85.77
2022-10-17T05:33:11.782Z,85.89
2022-10-17T05:35:41.642Z,85.98
2022-10-17T05:38:13.507Z,86.01
2022-10-17T05:40:44.351Z,86.02
2022-10-17T05:43:12.589Z,86.23
2022-10-17T05:45:41.994Z,86.33
2022-10-17T05:48:13.024Z,86.32
2022-10-17T05:50:40.752Z,86.26
2022-10-17T05:53:16.849Z,86.34
2022-10-17T05:55:56.127Z,86.67
2022-10-17T06:01:25.034Z,86.71
2022-10-17T06:03:53.442Z,86.93
2022-10-17T06:06:22.867Z,87.01
2022-10-17T06:08:51.636Z,87.25
2022-10-17T06:11:26.560Z,87.54
2022-10-17T06:13:55.040Z,87.42
2022-10-17T06:16:26.642Z,87.33
2022-10-17T06:18:54.934Z,87.30
2022-10-17T06:21:25.415Z,87.32
2022-10-17T06:23:57.315Z,87.14
2022-10-17T06:26:37.467Z,86.97
2022-10-17T06:29:08.241Z,86.78
2022-10-17T06:31:41.229Z,86.81
2022-10-17T06:34:09.098Z,86.63
2022-10-17T06:36:39.071Z,86.61
2022-10-17T06:39:07.760Z,86.42
2022-10-17T06:41:46.088Z,86.42
2022-10-17T06:44:19.151Z,86.43
2022-10-17T06:47:13.433Z,86.27
2022-10-17T06:49:45.881Z,86.11
2022-10-17T06:52:26.952Z,85.97
2022-10-17T06:55:21.427Z,85.65
2022-10-17T06:58:03.319Z,85.83
2022-10-17T07:00:46.676Z,85.66
2022-10-17T07:03:16.557Z,85.72
2022-10-17T07:05:52.326Z,85.69
2022-10-17T07:08:20.389Z,85.82
2022-10-17T07:10:48.233Z,85.68
2022-10-17T07:13:16.386Z,85.75
2022-10-17T07:15:44.289Z,85.62
2022-10-17T07:18:12.673Z,85.52
2022-10-17T07:20:40.571Z,85.29
2022-10-17T07:23:08.538Z,85.35
2022-10-17T07:25:40.096Z,85.36
2022-10-17T07:28:09.896Z,85.02
2022-10-17T07:30:39.535Z,85.06
2022-10-17T07:33:11.417Z,84.52
2022-10-17T07:35:43.468Z,84.00
2022-10-17T07:38:12.033Z,83.91
2022-10-17T07:40:39.826Z,83.67
2022-10-17T07:43:07.954Z,83.65
2022-10-17T07:45:36.804Z,83.09
2022-10-17T07:48:06.370Z,82.60
2022-10-17T07:50:35.247Z,82.80
2022-10-17T07:53:18.199Z,82.46
2022-10-17T07:55:59.821Z,82.27
2022-10-17T07:58:48.188Z,82.14
2022-10-17T08:01:17.580Z,81.82
2022-10-17T08:03:47.267Z,81.62
2022-10-17T08:06:15.750Z,81.59
2022-10-17T08:08:44.429Z,81.30
2022-10-17T08:11:14.401Z,81.07
2022-10-17T08:13:42.571Z,80.88
2022-10-17T08:16:13.576Z,80.53
2022-10-17T08:18:43.090Z,80.30
2022-10-17T08:21:13.554Z,80.02
2022-10-17T08:23:41.834Z,79.70
2022-10-17T08:26:13.359Z,79.40
2022-10-17T08:28:42.061Z,79.17
2022-10-17T08:31:12.648Z,79.10
2022-10-17T08:33:42.439Z,78.82
2022-10-17T08:36:14.783Z,78.68
2022-10-17T08:38:43.902Z,79.08
2022-10-17T08:41:38.620Z,78.64
2022-10-17T08:44:19.543Z,78.66
2022-10-17T08:46:50.183Z,78.18
2022-10-17T08:49:57.431Z,78.39
2022-10-17T08:52:45.507Z,78.65
2022-10-17T08:55:41.331Z,77.97
2022-10-17T08:58:14.948Z,77.13
2022-10-17T09:00:52.994Z,76.89
2022-10-17T09:03:51.605Z,77.13
2022-10-17T09:06:57.109Z,76.90
2022-10-17T09:09:45.401Z,75.89
2022-10-17T09:12:21.077Z,75.68
2022-10-17T09:15:36.889Z,75.76
2022-10-17T09:18:21.193Z,75.69
2022-10-17T09:20:58.144Z,75.64
2022-10-17T09:23:30.585Z,75.18
2022-10-17T09:26:00.754Z,75.46
2022-10-17T09:28:34.987Z,75.31
2022-10-17T09:31:27.133Z,74.81
2022-10-17T09:33:57.160Z,74.53
2022-10-17T09:36:37.810Z,74.01
2022-10-17T09:39:13.298Z,73.72
2022-10-17T09:41:50.323Z,73.56
2022-10-17T09:44:26.358Z,73.55
2022-10-17T09:47:08.176Z,73.03
2022-10-17T09:49:39.776Z,73.11
2022-10-17T09:52:21.706Z,72.99
2022-10-17T09:54:56.106Z,72.50
2022-10-17T09:57:25.622Z,71.90
2022-10-17T10:00:02.683Z,71.73
2022-10-17T10:02:36.441Z,71.49
2022-10-17T10:05:06.275Z,71.21
2022-10-17T10:07:38.448Z,70.84
2022-10-17T10:10:25.445Z,70.94
2022-10-17T10:13:15.953Z,70.65
2022-10-17T10:15:45.896Z,70.11
2022-10-17T10:18:26.107Z,70.00
2022-10-17T10:21:09.755Z,69.85
2022-10-17T10:23:45.437Z,69.55
2022-10-17T10:26:22.508Z,69.67
2022-10-17T10:28:58.113Z,69.79
2022-10-17T10:31:33.604Z,69.54
2022-10-17T10:34:13.645Z,69.42
2022-10-17T10:37:03.095Z,69.26
2022-10-17T10:39:50.076Z,68.76
2022-10-17T10:42:37.637Z,68.62
2022-10-17T10:48:25.911Z,68.32
2022-10-17T10:51:01.948Z,68.08
2022-10-17T10:53:52.753Z,67.98
2022-10-17T10:56:40.802Z,67.53
2022-10-17T10:59:09.323Z,67.21
2022-10-17T11:02:00.438Z,67.09
2022-10-17T11:04:31.539Z,66.79
2022-10-17T11:07:06.380Z,66.62
2022-10-17T11:09:49.281Z,66.41
2022-10-17T11:12:20.815Z,65.97
2022-10-17T11:14:57.972Z,65.75
2022-10-17T11:17:43.288Z,65.49
2022-10-17T11:20:25.972Z,65.25
2022-10-17T11:23:21.426Z,64.99
2022-10-17T11:25:51.978Z,65.14
2022-10-17T11:28:23.175Z,65.17
2022-10-17T11:31:04.537Z,64.71
2022-10-17T11:33:58.369Z,64.49
2022-10-17T11:36:31.646Z,63.93
2022-10-17T11:39:09.281Z,63.38
2022-10-17T11:42:13.180Z,63.15
2022-10-17T11:44:42.573Z,63.04
2022-10-17T11:47:16.524Z,62.86
2022-10-17T11:49:55.309Z,62.37
2022-10-17T11:55:29.868Z,62.16
2022-10-17T11:58:30.763Z,61.57
2022-10-17T12:01:19.057Z,60.82
2022-10-17T12:04:02.866Z,60.87
2022-10-17T12:06:52.547Z,60.62
2022-10-17T12:09:42.472Z,60.20
2022-10-17T12:12:10.256Z,60.04
2022-10-17T12:14:48.135Z,59.86
2022-10-17T12:17:39.317Z,59.84
2022-10-17T12:20:27.565Z,59.62
2022-10-17T12:23:10.552Z,59.01
2022-10-17T12:25:48.577Z,59.04
2022-10-17T12:28:23.706Z,59.01
2022-10-17T12:30:59.322Z,58.89
2022-10-17T12:33:52.137Z,58.51
2022-10-17T12:36:22.915Z,58.58
2022-10-17T12:39:08.815Z,58.44
2022-10-17T12:41:39.714Z,58.59
2022-10-17T12:44:14.702Z,58.69
2022-10-17T12:46:58.164Z,58.21
2022-10-17T12:49:41.445Z,57.77
2022-10-17T12:52:58.263Z,57.44
2022-10-17T12:55:26.881Z,57.15
2022-10-17T12:58:05.589Z,57.13
2022-10-17T13:01:22.467Z,57.04
2022-10-17T13:03:49.197Z,57.01
2022-10-17T13:06:24.883Z,57.34
2022-10-17T13:09:06.249Z,57.05
2022-10-17T13:11:37.964Z,56.68
2022-10-17T13:14:13.137Z,56.18
2022-10-17T13:16:55.011Z,56.01
2022-10-17T13:19:26.010Z,56.44
2022-10-17T13:22:06.701Z,56.72
2022-10-17T13:24:40.824Z,56.86
2022-10-17T13:27:32.391Z,55.94
2022-10-17T13:30:12.296Z,55.63
2022-10-17T13:32:45.129Z,55.50
2022-10-17T13:35:24.412Z,55.43
2022-10-17T13:37:54.273Z,55.30
2022-10-17T13:40:44.589Z,54.96
2022-10-17T13:43:24.673Z,54.95
2022-10-17T13:45:56.432Z,55.22
2022-10-17T13:48:28.533Z,54.92
2022-10-17T13:51:02.780Z,55.38
2022-10-17T13:53:39.966Z,55.53
2022-10-17T13:56:28.006Z,55.14
2022-10-17T13:59:00.328Z,55.60
2022-10-17T14:01:29.811Z,55.08
2022-10-17T14:04:09.000Z,54.99
2022-10-17T14:06:49.329Z,54.87
2022-10-17T14:09:27.102Z,54.84
2022-10-17T14:12:11.142Z,54.94
2022-10-17T14:15:05.139Z,55.00
2022-10-17T14:17:30.727Z,55.01
2022-10-17T14:20:29.686Z,55.14
2022-10-17T14:23:21.588Z,55.28
2022-10-17T14:25:46.896Z,54.49
2022-10-17T14:28:35.094Z,54.78
2022-10-17T14:31:16.068Z,54.52
2022-10-17T14:33:50.486Z,54.57
2022-10-17T14:36:21.603Z,54.93
2022-10-17T14:38:52.104Z,55.09
2022-10-17T14:41:42.839Z,54.97
2022-10-17T14:44:20.784Z,54.76
2022-10-17T14:46:53.563Z,54.86
2022-10-17T14:49:27.742Z,54.78
2022-10-17T14:52:18.810Z,54.82
2022-10-17T14:54:49.214Z,54.91
2022-10-17T14:57:45.441Z,54.78
2022-10-17T15:00:18.605Z,54.82
2022-10-17T15:02:48.873Z,54.88
2022-10-17T15:05:19.849Z,54.96
2022-10-17T15:07:48.776Z,54.81
2022-10-17T15:10:34.200Z,54.92
2022-10-17T15:13:27.134Z,55.05
2022-10-17T15:15:52.387Z,55.32
2022-10-17T15:18:21.982Z,55.86
2022-10-17T15:20:55.456Z,55.34
2022-10-17T15:23:42.614Z,55.48
2022-10-17T15:26:26.675Z,55.57
2022-10-17T15:28:54.602Z,55.82
2022-10-17T15:31:24.728Z,56.11
2022-10-17T15:33:53.240Z,55.85
2022-10-17T15:36:40.796Z,55.73
2022-10-17T15:39:10.815Z,55.77
2022-10-17T15:41:38.709Z,55.70
2022-10-17T15:44:06.631Z,56.77
2022-10-17T15:46:36.155Z,56.41
2022-10-17T15:49:07.754Z,56.29
2022-10-17T15:51:36.842Z,56.24
2022-10-17T15:54:05.829Z,56.51
2022-10-17T15:56:45.820Z,56.20
2022-10-17T15:59:22.640Z,56.33
2022-10-17T16:01:50.833Z,56.13
2022-10-17T16:04:24.007Z,56.40
2022-10-17T16:06:52.064Z,56.37
2022-10-17T16:09:22.864Z,57.13
2022-10-17T16:11:50.859Z,57.01
2022-10-17T16:14:18.653Z,57.58
2022-10-17T16:16:47.126Z,56.93
2022-10-17T16:19:18.820Z,56.55
2022-10-17T16:21:46.598Z,56.77
2022-10-17T16:24:14.823Z,56.78
2022-10-17T16:26:42.546Z,56.77
2022-10-17T16:29:11.647Z,56.87
2022-10-17T16:31:43.696Z,56.91
2022-10-17T16:34:14.018Z,56.95
2022-10-17T16:36:42.796Z,57.09
2022-10-17T16:39:10.572Z,57.08
2022-10-17T16:41:39.571Z,56.93
2022-10-17T16:44:10.891Z,57.20
2022-10-17T16:46:38.965Z,57.21
2022-10-17T16:49:08.315Z,57.22
2022-10-17T16:51:36.703Z,57.29
2022-10-17T16:54:04.808Z,57.15
2022-10-17T16:56:33.736Z,57.23
2022-10-17T16:59:01.856Z,57.46
2022-10-17T17:01:29.686Z,57.56
2022-10-17T17:03:58.415Z,57.58
2022-10-17T17:06:30.853Z,57.58
2022-10-17T17:08:59.099Z,57.60
2022-10-17T17:11:28.637Z,57.87
2022-10-17T17:13:58.371Z,57.81
2022-10-17T17:16:29.403Z,58.02
2022-10-17T17:19:00.623Z,58.12
2022-10-17T17:21:29.041Z,58.19
2022-10-17T17:24:00.501Z,58.28
2022-10-17T17:26:32.294Z,58.29
2022-10-17T17:29:00.893Z,58.34
2022-10-17T17:31:32.343Z,58.42
2022-10-17T17:34:01.198Z,58.51
2022-10-17T17:36:34.001Z,58.57
2022-10-17T17:39:09.622Z,58.48
2022-10-17T17:41:46.345Z,58.51
2022-10-17T17:44:16.985Z,58.44
2022-10-17T17:46:47.827Z,58.57
2022-10-17T17:49:15.740Z,58.67
2022-10-17T17:51:47.842Z,58.80
2022-10-17T17:54:16.250Z,58.88
2022-10-17T17:56:44.009Z,58.76
2022-10-17T17:59:14.505Z,58.94
2022-10-17T18:01:46.168Z,59.04
2022-10-17T18:04:16.506Z,59.30
2022-10-17T18:06:46.948Z,59.18
2022-10-17T18:09:14.760Z,59.14
2022-10-17T18:11:44.951Z,59.23
2022-10-17T18:14:13.987Z,59.34
2022-10-17T18:16:42.450Z,59.42
2022-10-17T18:19:12.070Z,59.43
2022-10-17T18:21:40.152Z,59.56
2022-10-17T18:24:08.867Z,59.63
2022-10-17T18:26:36.951Z,59.50
2022-10-17T18:29:05.264Z,59.53
2022-10-17T18:31:36.011Z,59.55
2022-10-17T18:34:06.960Z,59.79
2022-10-17T18:36:39.066Z,59.76
2022-10-17T18:39:07.144Z,59.80
2022-10-17T18:41:35.644Z,59.95
2022-10-17T18:44:05.272Z,60.04
2022-10-17T18:46:40.258Z,60.14
2022-10-17T18:49:11.786Z,60.01
2022-10-17T18:51:41.695Z,59.99
2022-10-17T18:54:21.157Z,59.95
2022-10-17T18:56:52.260Z,60.12
2022-10-17T18:59:21.150Z,60.14
2022-10-17T19:01:49.350Z,60.14
2022-10-17T19:04:17.821Z,60.07
2022-10-17T19:06:46.671Z,60.19
2022-10-17T19:09:17.030Z,60.29
2022-10-17T19:11:46.828Z,60.25
2022-10-17T19:14:15.360Z,60.26
2022-10-17T19:16:46.515Z,60.44
2022-10-17T19:19:17.969Z,60.38
2022-10-17T19:21:46.298Z,60.51
2022-10-17T19:24:24.870Z,60.50
2022-10-17T19:26:54.959Z,60.42
2022-10-17T19:29:28.319Z,60.58
2022-10-17T19:31:57.588Z,60.72
2022-10-17T19:34:27.957Z,60.68
2022-10-17T19:36:56.441Z,60.70
2022-10-17T19:39:25.268Z,60.62
2022-10-17T19:41:53.032Z,60.70
2022-10-17T19:44:20.976Z,60.87
2022-10-17T19:46:49.390Z,60.91
2022-10-17T19:49:17.803Z,60.98
2022-10-17T19:51:46.037Z,60.89
2022-10-17T19:54:16.685Z,60.88
2022-10-17T19:56:46.284Z,61.06
2022-10-17T19:59:16.104Z,61.23
2022-10-17T20:01:45.092Z,61.06
2022-10-17T20:04:14.480Z,61.01
2022-10-17T20:06:42.324Z,61.30
2022-10-17T20:09:15.646Z,61.20
2022-10-17T20:11:49.204Z,61.34
2022-10-17T20:14:17.304Z,61.23
2022-10-17T20:16:49.986Z,61.32
2022-10-17T20:19:18.271Z,61.59
2022-10-17T20:21:46.159Z,61.69
2022-10-17T20:24:16.224Z,61.60
2022-10-17T20:26:45.565Z,61.66
2022-10-17T20:29:20.068Z,61.71
2022-10-17T20:31:49.733Z,61.76
2022-10-17T20:34:18.691Z,61.55
2022-10-17T20:36:47.024Z,61.66
2022-10-17T20:39:16.574Z,61.52
2022-10-17T20:41:45.778Z,61.48
2022-10-17T20:44:13.737Z,61.70
2022-10-17T20:46:48.682Z,61.49
2022-10-17T20:49:22.227Z,61.47
2022-10-17T20:51:49.958Z,61.43
2022-10-17T20:54:17.732Z,61.34
2022-10-17T20:56:45.493Z,61.47
2022-10-17T20:59:17.921Z,61.50
2022-10-17T21:01:46.240Z,61.55
2022-10-17T21:04:44.822Z,61.43
2022-10-17T21:07:03.737Z,61.29
2022-10-17T21:09:32.842Z,61.37
2022-10-17T21:14:36.454Z,61.25
2022-10-17T21:17:05.404Z,61.39
2022-10-17T21:19:33.969Z,61.32
2022-10-17T21:22:02.089Z,61.27
2022-10-17T21:24:30.997Z,61.29
2022-10-17T21:26:58.954Z,61.43
2022-10-17T21:29:27.890Z,61.37
2022-10-17T21:31:55.695Z,61.29
2022-10-17T21:34:25.206Z,61.27
2022-10-17T21:36:53.279Z,61.48
2022-10-17T21:39:22.969Z,61.37
2022-10-17T21:41:51.854Z,61.11
2022-10-17T21:44:22.584Z,61.26
2022-10-17T21:46:51.431Z,61.21
2022-10-17T21:49:21.748Z,61.07
2022-10-17T21:51:50.442Z,61.18
2022-10-17T21:54:20.007Z,61.30
2022-10-17T21:56:47.823Z,61.21
2022-10-17T21:59:17.119Z,61.31
2022-10-17T22:01:46.333Z,61.29
2022-10-17T22:04:16.335Z,61.38
2022-10-17T22:06:47.940Z,61.38
2022-10-17T22:09:20.364Z,61.29
2022-10-17T22:11:51.646Z,61.35
2022-10-17T22:14:21.491Z,61.40
2022-10-17T22:16:50.926Z,61.44
2022-10-17T22:19:22.609Z,61.36
2022-10-17T22:21:50.757Z,61.25
2022-10-17T22:26:49.090Z,61.38
2022-10-17T22:29:17.195Z,61.59
2022-10-17T22:31:45.133Z,61.39
2022-10-17T22:34:15.100Z,61.55
2022-10-17T22:36:43.323Z,61.50
2022-10-17T22:39:11.591Z,61.50
2022-10-17T22:41:39.813Z,61.46
2022-10-17T22:44:07.869Z,61.52
2022-10-17T22:46:36.681Z,61.40
2022-10-17T22:49:06.129Z,61.58
2022-10-17T22:51:33.955Z,61.60
2022-10-17T22:54:01.739Z,61.73
2022-10-17T22:56:29.822Z,61.59
2022-10-17T22:58:58.173Z,61.69
2022-10-17T23:01:27.583Z,61.81
2022-10-17T23:03:55.395Z,61.81
2022-10-17T23:06:23.876Z,61.90
2022-10-17T23:08:52.542Z,61.87
2022-10-17T23:11:21.119Z,62.05
2022-10-17T23:13:49.114Z,61.89
2022-10-17T23:16:17.265Z,62.06
2022-10-17T23:18:45.225Z,62.28
2022-10-17T23:21:15.952Z,62.24
2022-10-17T23:23:46.008Z,62.20
2022-10-17T23:26:15.249Z,62.17
2022-10-17T23:28:43.356Z,62.18
2022-10-17T23:31:14.329Z,62.14
2022-10-17T23:33:52.251Z,62.24
2022-10-17T23:36:21.496Z,62.35
2022-10-17T23:38:51.741Z,62.38
2022-10-17T23:41:22.673Z,62.35
2022-10-17T23:43:51.337Z,62.52
2022-10-17T23:46:19.760Z,62.45
2022-10-17T23:48:47.581Z,62.56
2022-10-17T23:51:15.685Z,62.46
2022-10-17T23:53:44.563Z,62.52
2022-10-17T23:56:12.397Z,62.62
2022-10-17T23:58:40.216Z,62.64
